createdAt,value
2022-10-19T00:01:23.874Z,45.15
2022-10-19T00:03:53.637Z,42.72
2022-10-19T00:06:27.114Z,43.70
2022-10-19T00:09:03.402Z,46.35
2022-10-19T00:11:32.021Z,44.58
2022-10-19T00:14:00.981Z,45.03
2022-10-19T00:16:31.682Z,46.13
2022-10-19T00:19:01.264Z,45.72
2022-10-19T00:21:29.562Z,43.28
2022-10-19T00:23:57.415Z,43.58
2022-10-19T00:26:25.980Z,43.08
2022-10-19T00:28:56.774Z,42.33
2022-10-19T00:31:25.174Z,40.67
2022-10-19T00:33:53.131Z,41.88
2022-10-19T00:36:21.993Z,44.00
2022-10-19T00:38:50.196Z,43.95
2022-10-19T00:41:18.825Z,42.85
2022-10-19T00:44:01.890Z,40.22
2022-10-19T00:46:32.199Z,43.60
2022-10-19T00:49:11.064Z,44.33
2022-10-19T00:51:42.247Z,44.03
2022-10-19T00:54:10.911Z,40.80
2022-10-19T00:56:42.733Z,35.58
2022-10-19T00:59:15.056Z,37.47
2022-10-19T01:04:11.022Z,40.45
2022-10-19T01:06:39.733Z,36.88
2022-10-19T01:09:08.226Z,37.05
2022-10-19T01:11:56.561Z,40.58
2022-10-19T01:14:28.747Z,38.55
2022-10-19T01:17:21.007Z,40.63
2022-10-19T01:20:22.067Z,43.22
2022-10-19T01:23:23.189Z,40.88
2022-10-19T01:26:11.695Z,40.70
2022-10-19T01:29:06.786Z,42.80
2022-10-19T01:32:06.249Z,43.05
2022-10-19T01:34:48.174Z,43.78
2022-10-19T01:37:36.795Z,45.88
2022-10-19T01:40:09.767Z,43.97
2022-10-19T01:42:50.445Z,40.42
2022-10-19T01:45:24.290Z,38.63
2022-10-19T01:47:58.532Z,40.08
2022-10-19T01:50:41.201Z,39.05
2022-10-19T01:53:12.405Z,41.00
2022-10-19T01:55:43.386Z,41.80
2022-10-19T01:58:14.633Z,43.17
2022-10-19T02:00:45.419Z,43.40
2022-10-19T02:03:13.672Z,40.33
2022-10-19T02:05:42.619Z,40.65
2022-10-19T02:08:20.286Z,40.65
2022-10-19T02:10:48.346Z,44.05
2022-10-19T02:13:16.512Z,40.75
2022-10-19T02:15:49.365Z,43.47
2022-10-19T02:18:21.941Z,44.35
2022-10-19T02:20:49.582Z,42.67
2022-10-19T02:23:20.622Z,41.08
2022-10-19T02:25:48.252Z,42.05
2022-10-19T02:28:15.982Z,40.97
2022-10-19T02:30:43.490Z,41.08
2022-10-19T02:33:12.461Z,43.75
2022-10-19T02:35:40.499Z,45.20
2022-10-19T02:38:10.845Z,43.90
2022-10-19T02:40:42.593Z,43.47
2022-10-19T02:43:19.669Z,43.03
2022-10-19T02:45:56.393Z,42.92
2022-10-19T02:48:26.259Z,42.17
2022-10-19T02:50:53.646Z,41.33
2022-10-19T02:53:21.143Z,40.15
2022-10-19T02:55:49.975Z,40.08
2022-10-19T02:58:17.388Z,39.22
2022-10-19T03:00:44.784Z,37.67
2022-10-19T03:03:12.151Z,39.63
2022-10-19T03:05:39.614Z,38.83
2022-10-19T03:08:07.025Z,40.58
2022-10-19T03:10:34.449Z,41.63
2022-10-19T03:13:01.820Z,43.03
2022-10-19T03:15:29.916Z,39.47
2022-10-19T03:17:57.418Z,40.40
2022-10-19T03:20:24.844Z,41.08
2022-10-19T03:25:20.558Z,43.83
2022-10-19T03:27:47.975Z,38.75
2022-10-19T03:30:15.419Z,37.30
2022-10-19T03:32:42.831Z,38.50
2022-10-19T03:35:10.207Z,37.03
2022-10-19T03:37:37.735Z,39.30
2022-10-19T03:40:05.601Z,37.75
2022-10-19T03:42:32.965Z,39.90
2022-10-19T03:45:00.325Z,41.33
2022-10-19T03:47:27.994Z,38.90
2022-10-19T03:49:55.421Z,40.92
2022-10-19T03:52:23.294Z,39.95
2022-10-19T03:54:51.510Z,43.75
2022-10-19T03:57:19.203Z,41.17
2022-10-19T03:59:46.631Z,41.05
2022-10-19T04:02:14.081Z,39.08
2022-10-19T04:04:41.618Z,40.38
2022-10-19T04:07:09.069Z,42.95
2022-10-19T04:09:36.526Z,41.60
2022-10-19T04:12:04.185Z,42.35
2022-10-19T04:14:32.721Z,43.35
2022-10-19T04:17:06.804Z,44.30
2022-10-19T04:19:34.229Z,45.10
2022-10-19T04:22:01.684Z,45.25
2022-10-19T04:24:29.221Z,46.92
2022-10-19T04:26:56.935Z,47.25
2022-10-19T04:29:29.558Z,47.13
2022-10-19T04:31:58.589Z,45.22
2022-10-19T04:34:26.057Z,46.13
2022-10-19T04:36:53.950Z,41.20
2022-10-19T04:39:21.406Z,42.47
2022-10-19T04:41:48.775Z,46.15
2022-10-19T04:44:16.268Z,44.75
2022-10-19T04:46:43.736Z,45.60
2022-10-19T04:49:11.115Z,39.55
2022-10-19T04:51:38.511Z,39.40
2022-10-19T04:54:05.890Z,37.38
2022-10-19T04:56:33.491Z,38.58
2022-10-19T04:59:01.486Z,40.78
2022-10-19T05:01:30.758Z,39.72
2022-10-19T05:04:02.731Z,42.95
2022-10-19T05:06:31.532Z,39.50
2022-10-19T05:08:59.891Z,41.08
2022-10-19T05:11:27.711Z,40.08
2022-10-19T05:13:57.003Z,37.65
2022-10-19T05:16:24.774Z,40.10
2022-10-19T05:18:58.999Z,38.80
2022-10-19T05:21:30.032Z,40.42
2022-10-19T05:23:58.074Z,41.65
2022-10-19T05:26:27.168Z,45.28
2022-10-19T05:28:57.686Z,86.63
2022-10-19T05:31:27.224Z,47.35
2022-10-19T05:33:58.613Z,42.45
2022-10-19T05:36:34.537Z,43.57
2022-10-19T05:39:13.085Z,45.70
2022-10-19T05:41:42.957Z,46.45
2022-10-19T05:44:20.219Z,49.90
2022-10-19T05:46:48.889Z,46.95
2022-10-19T05:49:18.082Z,49.45
2022-10-19T05:51:45.900Z,46.63
2022-10-19T05:54:14.235Z,47.75
2022-10-19T05:56:42.513Z,45.72
2022-10-19T05:59:14.659Z,44.92
2022-10-19T06:01:42.078Z,42.67
2022-10-19T06:04:10.924Z,42.15
2022-10-19T06:06:38.378Z,44.50
2022-10-19T06:09:06.086Z,42.85
2022-10-19T06:11:36.428Z,44.33
2022-10-19T06:14:07.481Z,42.47
2022-10-19T06:16:35.454Z,39.80
2022-10-19T06:19:03.848Z,42.28
2022-10-19T06:21:32.574Z,40.25
2022-10-19T06:24:02.942Z,39.50
2022-10-19T06:26:33.767Z,38.65
2022-10-19T06:29:01.859Z,38.75
2022-10-19T06:31:31.978Z,38.80
2022-10-19T06:33:59.953Z,36.85
2022-10-19T06:36:31.122Z,38.38
2022-10-19T06:39:00.019Z,35.42
2022-10-19T06:41:28.190Z,35.47
2022-10-19T06:43:56.248Z,36.72
2022-10-19T06:46:25.287Z,32.75
2022-10-19T06:48:56.565Z,33.95
2022-10-19T06:51:26.037Z,36.17
2022-10-19T06:53:56.611Z,33.72
2022-10-19T06:56:25.738Z,33.47
2022-10-19T06:58:54.068Z,30.98
2022-10-19T07:01:22.509Z,33.53
2022-10-19T07:03:52.089Z,35.13
2022-10-19T07:06:20.416Z,34.63
2022-10-19T07:08:48.469Z,33.85
2022-10-19T07:11:18.313Z,35.67
2022-10-19T07:13:45.720Z,35.28
2022-10-19T07:16:19.658Z,32.92
2022-10-19T07:18:51.199Z,32.65
2022-10-19T07:21:21.123Z,33.55
2022-10-19T07:23:48.990Z,32.63
2022-10-19T07:26:21.062Z,32.90
2022-10-19T07:28:49.831Z,31.05
2022-10-19T07:31:20.551Z,35.95
2022-10-19T07:33:53.108Z,31.60
2022-10-19T07:36:21.779Z,30.27
2022-10-19T07:38:49.403Z,34.58
2022-10-19T07:41:19.131Z,32.97
2022-10-19T07:43:47.827Z,37.25
2022-10-19T07:46:21.431Z,40.80
2022-10-19T07:48:49.069Z,38.15
2022-10-19T07:51:18.175Z,39.88
2022-10-19T07:53:46.573Z,38.55
2022-10-19T07:56:20.040Z,39.28
2022-10-19T07:58:48.022Z,40.92
2022-10-19T08:01:18.138Z,41.95
2022-10-19T08:06:34.358Z,41.88
2022-10-19T08:09:01.775Z,43.83
2022-10-19T08:11:34.111Z,39.00
2022-10-19T08:14:03.222Z,45.97
2022-10-19T08:16:44.276Z,49.08
2022-10-19T08:19:13.759Z,46.78
2022-10-19T08:21:43.684Z,49.78
2022-10-19T08:24:13.857Z,50.67
2022-10-19T08:26:41.880Z,51.40
2022-10-19T08:29:31.546Z,53.00
2022-10-19T08:31:59.446Z,54.78
2022-10-19T08:34:26.988Z,54.08
2022-10-19T08:36:54.379Z,54.30
2022-10-19T08:39:21.806Z,56.25
2022-10-19T08:42:18.255Z,49.78
2022-10-19T08:45:19.433Z,55.50
2022-10-19T08:48:18.612Z,52.60
2022-10-19T08:50:47.716Z,55.60
2022-10-19T08:53:24.669Z,52.65
2022-10-19T08:56:04.706Z,55.30
2022-10-19T08:58:57.149Z,50.30
2022-10-19T09:01:24.483Z,45.17
2022-10-19T09:04:03.986Z,47.00
2022-10-19T09:06:52.969Z,46.90
2022-10-19T09:09:21.142Z,50.03
2022-10-19T09:11:52.845Z,55.72
2022-10-19T09:14:46.783Z,52.75
2022-10-19T09:17:17.002Z,52.40
2022-10-19T09:19:44.429Z,55.58
2022-10-19T09:22:32.487Z,54.97
2022-10-19T09:25:15.709Z,53.78
2022-10-19T09:27:45.834Z,49.80
2022-10-19T09:30:23.418Z,58.65
2022-10-19T09:33:00.338Z,53.42
2022-10-19T09:35:34.178Z,61.05
2022-10-19T09:38:02.286Z,58.40
2022-10-19T09:40:30.958Z,61.17
2022-10-19T09:42:59.625Z,58.10
2022-10-19T09:45:46.106Z,58.38
2022-10-19T09:48:50.967Z,55.05
2022-10-19T09:51:19.571Z,57.75
2022-10-19T09:53:54.940Z,57.58
2022-10-19T09:56:23.586Z,52.38
2022-10-19T09:58:54.054Z,52.55
2022-10-19T10:01:41.733Z,55.10
2022-10-19T10:04:15.265Z,54.65
2022-10-19T10:06:44.573Z,60.50
2022-10-19T10:09:28.586Z,55.90
2022-10-19T10:11:59.983Z,54.97
2022-10-19T10:14:29.344Z,54.65
2022-10-19T10:17:19.143Z,50.08
2022-10-19T10:20:27.908Z,49.97
2022-10-19T10:23:04.294Z,47.95
2022-10-19T10:25:36.610Z,57.80
2022-10-19T10:28:28.533Z,56.30
2022-10-19T10:31:07.862Z,52.65
2022-10-19T10:33:44.991Z,59.22
2022-10-19T10:36:13.724Z,57.65
2022-10-19T10:38:46.117Z,60.65
2022-10-19T10:41:20.173Z,56.65
2022-10-19T10:44:04.850Z,59.38
2022-10-19T10:46:52.026Z,57.78
2022-10-19T10:49:39.679Z,58.55
2022-10-19T10:52:11.689Z,56.22
2022-10-19T10:54:39.369Z,57.85
2022-10-19T10:57:14.124Z,57.75
2022-10-19T10:59:48.131Z,57.72
2022-10-19T11:02:31.521Z,57.45
2022-10-19T11:05:13.036Z,57.42
2022-10-19T11:07:47.547Z,57.87
2022-10-19T11:10:24.018Z,57.10
2022-10-19T11:13:12.950Z,57.85
2022-10-19T11:15:52.849Z,57.08
2022-10-19T11:18:32.310Z,56.28
2022-10-19T11:21:24.306Z,56.53
2022-10-19T11:24:03.730Z,55.92
2022-10-19T11:26:41.957Z,57.13
2022-10-19T11:29:14.840Z,56.38
2022-10-19T11:31:54.012Z,55.60
2022-10-19T11:34:23.694Z,56.03
2022-10-19T11:37:02.177Z,52.60
2022-10-19T11:39:35.607Z,49.08
2022-10-19T11:42:06.687Z,48.00
2022-10-19T11:44:45.734Z,50.40
2022-10-19T11:47:30.657Z,55.22
2022-10-19T11:50:27.080Z,53.10
2022-10-19T11:53:18.475Z,54.17
2022-10-19T11:56:03.388Z,50.08
2022-10-19T11:58:54.969Z,52.45
2022-10-19T12:01:41.582Z,52.60
2022-10-19T12:04:30.196Z,52.42
2022-10-19T12:07:15.056Z,51.88
2022-10-19T12:10:12.932Z,51.47
2022-10-19T12:12:58.856Z,52.03
2022-10-19T12:15:48.613Z,51.33
2022-10-19T12:18:40.392Z,53.22
2022-10-19T12:21:13.901Z,51.03
2022-10-19T12:23:45.333Z,51.55
2022-10-19T12:28:55.703Z,47.83
2022-10-19T12:31:25.054Z,49.20
2022-10-19T12:34:35.830Z,47.97
2022-10-19T12:37:25.774Z,43.50
2022-10-19T12:40:11.798Z,45.13
2022-10-19T12:42:53.962Z,44.08
2022-10-19T12:45:32.334Z,42.05
2022-10-19T12:48:08.550Z,42.35
2022-10-19T12:51:01.329Z,36.83
2022-10-19T12:53:44.331Z,33.38
2022-10-19T12:56:26.184Z,33.88
2022-10-19T12:59:01.228Z,38.88
2022-10-19T13:01:44.017Z,34.03
2022-10-19T13:04:13.553Z,37.53
2022-10-19T13:07:05.517Z,43.35
2022-10-19T13:09:42.504Z,42.70
2022-10-19T13:12:19.801Z,37.45
2022-10-19T13:14:52.838Z,38.08
2022-10-19T13:17:38.192Z,34.35
2022-10-19T13:20:14.846Z,31.65
2022-10-19T13:22:42.235Z,30.67
2022-10-19T13:25:21.894Z,33.10
2022-10-19T13:28:07.883Z,29.98
2022-10-19T13:30:38.501Z,37.38
2022-10-19T13:33:33.081Z,34.83
2022-10-19T13:36:04.082Z,36.20
2022-10-19T13:38:40.452Z,34.75
2022-10-19T13:41:19.394Z,32.85
2022-10-19T13:44:06.781Z,33.47
2022-10-19T13:46:52.196Z,33.05
2022-10-19T13:49:34.334Z,35.40
2022-10-19T13:52:26.291Z,33.13
2022-10-19T13:55:02.563Z,34.13
2022-10-19T13:58:14.077Z,34.13
2022-10-19T14:01:06.100Z,35.75
2022-10-19T14:04:14.766Z,34.47
2022-10-19T14:07:21.830Z,34.85
2022-10-19T14:09:49.162Z,38.80
2022-10-19T14:12:16.506Z,35.22
2022-10-19T14:14:45.131Z,36.92
2022-10-19T14:19:54.293Z,36.85
2022-10-19T14:22:36.257Z,35.85
2022-10-19T14:25:14.979Z,35.05
2022-10-19T14:27:42.827Z,38.05
2022-10-19T14:30:28.341Z,38.25
2022-10-19T14:32:59.464Z,37.35
2022-10-19T14:35:41.272Z,36.97
2022-10-19T14:38:15.649Z,36.55
2022-10-19T14:40:43.133Z,35.90
2022-10-19T14:43:26.979Z,36.45
2022-10-19T14:46:29.278Z,37.97
2022-10-19T14:49:01.378Z,33.47
2022-10-19T14:51:52.074Z,35.70
2022-10-19T14:54:31.342Z,35.67
2022-10-19T14:57:01.706Z,35.72
2022-10-19T15:02:31.367Z,36.05
2022-10-19T15:05:01.786Z,35.97
2022-10-19T15:07:37.344Z,38.25
2022-10-19T15:10:09.262Z,35.35
2022-10-19T15:12:40.091Z,35.53
2022-10-19T15:15:19.517Z,34.78
2022-10-19T15:17:57.515Z,39.50
2022-10-19T15:20:28.841Z,36.50
2022-10-19T15:23:00.982Z,39.27
2022-10-19T15:25:39.288Z,36.85
2022-10-19T15:28:20.741Z,38.40
2022-10-19T15:31:04.022Z,37.87
2022-10-19T15:33:43.430Z,36.90
2022-10-19T15:36:17.171Z,37.83
2022-10-19T15:38:47.498Z,36.13
2022-10-19T15:41:28.215Z,38.05
2022-10-19T15:44:08.364Z,37.13
2022-10-19T15:47:19.146Z,37.97
2022-10-19T15:49:46.957Z,37.95
2022-10-19T15:52:19.891Z,38.78
2022-10-19T15:54:50.983Z,38.15
2022-10-19T15:57:26.439Z,39.88
2022-10-19T15:59:55.820Z,39.10
2022-10-19T16:02:26.917Z,39.78
2022-10-19T16:04:54.984Z,38.65
2022-10-19T16:07:31.376Z,39.03
2022-10-19T16:09:59.233Z,40.88
2022-10-19T16:12:26.960Z,40.22
2022-10-19T16:14:54.959Z,39.30
2022-10-19T16:17:22.869Z,42.75
2022-10-19T16:19:50.284Z,40.42
2022-10-19T16:22:17.806Z,41.92
2022-10-19T16:24:45.232Z,40.75
2022-10-19T16:27:15.246Z,45.70
2022-10-19T16:29:44.590Z,39.35
2022-10-19T16:32:12.059Z,41.90
2022-10-19T16:34:39.666Z,39.85
2022-10-19T16:37:07.605Z,40.92
2022-10-19T16:39:35.941Z,39.70
2022-10-19T16:42:03.605Z,41.50
2022-10-19T16:44:30.977Z,42.75
2022-10-19T16:46:58.719Z,43.70
2022-10-19T16:49:26.646Z,41.38
2022-10-19T16:51:57.279Z,42.08
2022-10-19T16:54:26.879Z,41.55
2022-10-19T16:56:55.707Z,41.88
2022-10-19T16:59:23.234Z,42.47
2022-10-19T17:01:51.007Z,41.03
2022-10-19T17:04:18.485Z,42.17
2022-10-19T17:06:46.959Z,44.08
2022-10-19T17:12:01.842Z,42.92
2022-10-19T17:14:29.242Z,41.70
2022-10-19T17:16:56.617Z,42.60
2022-10-19T17:19:24.100Z,41.85
2022-10-19T17:21:54.275Z,44.28
2022-10-19T17:24:22.765Z,42.15
2022-10-19T17:26:51.546Z,43.13
2022-10-19T17:29:20.365Z,39.67
2022-10-19T17:31:48.427Z,39.15
2022-10-19T17:34:16.194Z,39.50
2022-10-19T17:36:45.644Z,40.47
2022-10-19T17:39:19.248Z,39.58
2022-10-19T17:41:50.505Z,40.00
2022-10-19T17:44:20.283Z,40.20
2022-10-19T17:46:48.148Z,39.20
2022-10-19T17:49:16.378Z,39.28
2022-10-19T17:51:43.902Z,38.38
2022-10-19T17:54:13.554Z,34.53
2022-10-19T17:56:41.806Z,37.08
2022-10-19T17:59:09.367Z,35.80
2022-10-19T18:01:37.433Z,34.45
2022-10-19T18:04:05.372Z,32.28
2022-10-19T18:06:35.352Z,32.20
2022-10-19T18:09:05.635Z,31.75
2022-10-19T18:11:40.688Z,31.92
2022-10-19T18:14:09.559Z,32.45
2022-10-19T18:16:44.698Z,30.80
2022-10-19T18:19:13.838Z,31.17
2022-10-19T18:21:43.340Z,29.73
2022-10-19T18:24:20.372Z,29.30
2022-10-19T18:26:49.116Z,30.08
2022-10-19T18:29:21.425Z,28.45
2022-10-19T18:34:21.927Z,27.35
2022-10-19T18:36:50.078Z,27.05
2022-10-19T18:39:18.374Z,26.40
2022-10-19T18:41:45.943Z,25.65
2022-10-19T18:44:14.381Z,24.80
2022-10-19T18:46:41.927Z,24.23
2022-10-19T18:49:11.195Z,24.58
2022-10-19T18:51:38.846Z,24.23
2022-10-19T18:54:06.273Z,24.83
2022-10-19T18:56:36.415Z,23.77
2022-10-19T18:59:04.906Z,23.52
2022-10-19T19:01:32.455Z,20.70
2022-10-19T19:04:09.049Z,23.15
2022-10-19T19:06:37.676Z,22.60
2022-10-19T19:09:09.748Z,22.58
2022-10-19T19:11:39.253Z,22.00
2022-10-19T19:14:16.144Z,21.52
2022-10-19T19:16:45.048Z,21.73
2022-10-19T19:19:14.777Z,21.58
2022-10-19T19:21:44.377Z,21.63
2022-10-19T19:24:15.069Z,20.08
2022-10-19T19:26:46.700Z,22.98
2022-10-19T19:29:14.557Z,20.65
2022-10-19T19:31:42.270Z,21.65
2022-10-19T19:34:09.829Z,22.88
2022-10-19T19:39:18.684Z,23.73
2022-10-19T19:41:47.386Z,24.27
2022-10-19T19:44:15.888Z,25.63
2022-10-19T19:46:43.532Z,29.75
2022-10-19T19:49:11.181Z,33.17
2022-10-19T19:51:38.719Z,36.65
2022-10-19T19:54:06.318Z,34.42
2022-10-19T19:56:33.806Z,36.83
2022-10-19T19:59:03.664Z,34.05
2022-10-19T20:01:31.872Z,33.25
2022-10-19T20:04:00.144Z,35.50
2022-10-19T20:06:27.712Z,36.28
2022-10-19T20:08:56.492Z,35.95
2022-10-19T20:11:26.103Z,35.17
2022-10-19T20:13:53.590Z,32.22
2022-10-19T20:16:29.180Z,35.78
2022-10-19T20:19:12.764Z,33.58
2022-10-19T20:21:41.383Z,33.03
2022-10-19T20:24:09.786Z,33.25
2022-10-19T20:26:37.281Z,35.70
2022-10-19T20:29:05.167Z,34.42
2022-10-19T20:31:38.595Z,34.90
2022-10-19T20:34:10.890Z,34.85
2022-10-19T20:36:38.536Z,33.72
2022-10-19T20:39:05.994Z,34.17
2022-10-19T20:41:33.409Z,33.47
2022-10-19T20:44:00.842Z,31.92
2022-10-19T20:46:30.161Z,33.65
2022-10-19T20:49:02.614Z,32.83
2022-10-19T20:51:36.565Z,29.42
2022-10-19T20:54:06.698Z,29.63
2022-10-19T20:56:36.965Z,26.83
2022-10-19T20:59:27.755Z,24.83
2022-10-19T21:01:57.202Z,22.35
2022-10-19T21:04:25.609Z,23.10
2022-10-19T21:06:53.285Z,18.55
2022-10-19T21:09:23.081Z,18.63
2022-10-19T21:11:51.344Z,18.55
2022-10-19T21:14:28.056Z,16.85
2022-10-19T21:17:00.474Z,15.27
2022-10-19T21:19:29.794Z,15.52
2022-10-19T21:22:04.658Z,12.98
2022-10-19T21:24:35.317Z,14.65
2022-10-19T21:27:05.148Z,13.50
2022-10-19T21:29:32.930Z,12.68
2022-10-19T21:32:00.334Z,15.52
2022-10-19T21:34:30.040Z,13.77
2022-10-19T21:36:57.900Z,13.93
2022-10-19T21:39:25.336Z,11.95
2022-10-19T21:41:53.069Z,12.65
2022-10-19T21:44:22.965Z,12.00
2022-10-19T21:46:50.765Z,11.30
2022-10-19T21:49:18.507Z,10.18
2022-10-19T21:51:45.850Z,9.70
2022-10-19T21:54:19.330Z,9.73
2022-10-19T21:56:47.418Z,9.40
2022-10-19T21:59:15.463Z,9.85
2022-10-19T22:01:44.278Z,8.90
2022-10-19T22:04:14.783Z,8.45
2022-10-19T22:06:42.953Z,9.55
2022-10-19T22:09:13.246Z,8.50
2022-10-19T22:11:41.263Z,8.13
2022-10-19T22:14:10.253Z,7.80
2022-10-19T22:16:37.671Z,8.07
2022-10-19T22:19:06.080Z,8.48
2022-10-19T22:21:35.287Z,7.95
2022-10-19T22:24:05.849Z,7.07
2022-10-19T22:26:39.273Z,8.27
2022-10-19T22:29:07.868Z,8.07
2022-10-19T22:31:36.500Z,9.43
2022-10-19T22:34:07.877Z,8.98
2022-10-19T22:36:37.162Z,9.20
2022-10-19T22:39:06.755Z,9.73
2022-10-19T22:42:31.562Z,8.40
2022-10-19T22:45:19.043Z,9.45
2022-10-19T22:47:46.369Z,9.75
2022-10-19T22:50:13.820Z,9.80
2022-10-19T22:52:41.151Z,8.77
2022-10-19T22:55:08.685Z,9.02
2022-10-19T22:57:36.010Z,8.50
2022-10-19T23:00:04.033Z,10.18
2022-10-19T23:02:31.393Z,9.00
2022-10-19T23:04:58.709Z,9.23
2022-10-19T23:07:26.041Z,8.95
2022-10-19T23:09:53.367Z,9.52
2022-10-19T23:12:20.890Z,9.13
2022-10-19T23:14:48.224Z,9.20
2022-10-19T23:17:15.605Z,8.65
2022-10-19T23:19:42.951Z,10.40
2022-10-19T23:22:10.329Z,9.13
2022-10-19T23:24:37.694Z,8.40
2022-10-19T23:27:05.035Z,9.40
2022-10-19T23:29:32.418Z,9.15
2022-10-19T23:31:59.875Z,9.55
2022-10-19T23:34:27.360Z,10.38
2022-10-19T23:36:54.751Z,9.50
2022-10-19T23:39:22.135Z,10.07
2022-10-19T23:41:49.551Z,10.38
2022-10-19T23:44:16.926Z,9.52
2022-10-19T23:46:44.371Z,10.10
2022-10-19T23:49:11.829Z,10.60
2022-10-19T23:51:40.004Z,10.07
2022-10-19T23:54:07.387Z,9.15
2022-10-19T23:56:34.772Z,8.98
2022-10-19T23:59:02.142Z,10.43
